Espigao d'Oeste, Brazil
Current Conditions -  °F | °C
As of 8:00 PM on Friday 21 Nov 2014 (Local Time) from SBVH Reporting Station
Light Rain Light Rain  
Wind Chill: 73°   Ceiling: 8000
Heat Index: 73°   Visibility: 6mi
Dew Point: 73°   Wind: 2mph
Humidity: 100%   Direction: 120°ESE
Pressure: NA   Gusts: NA
Location:  11.52°S, 61.01°W
Report Text: SBVH 220000Z 12002KT 9999 -RA SCT015 FEW016TCU BKN080 23/23 Q1013
Loading
Personal Weather Stations






























Interactive Weather Map New forecast layout! Learn more

10-Day Weather Forecast

Advertisements
Track Severe Weather on mobile